createdAt,value
2018-07-05T00:00:43.060Z,81.61
2018-07-05T00:03:29.539Z,80.74
2018-07-05T00:06:16.113Z,80.71
2018-07-05T00:08:56.446Z,80.35
2018-07-05T00:11:42.934Z,82.81
2018-07-05T00:14:29.373Z,83.12
2018-07-05T00:17:09.622Z,82.25
2018-07-05T00:19:56.084Z,82.89
2018-07-05T00:22:42.363Z,83.67
2018-07-05T00:25:28.879Z,84.36
2018-07-05T00:28:15.403Z,84.69
2018-07-05T00:31:01.791Z,84.14
2018-07-05T00:33:48.414Z,84.26
2018-07-05T00:36:35.168Z,83.91
2018-07-05T00:39:15.508Z,83.87
2018-07-05T00:42:01.826Z,83.89
2018-07-05T00:44:48.243Z,83.59
2018-07-05T00:47:34.767Z,83.99
2018-07-05T00:50:21.204Z,84.24
2018-07-05T00:53:07.688Z,83.88
2018-07-05T00:55:54.157Z,83.38
2018-07-05T00:58:40.840Z,83.26
2018-07-05T01:01:21.107Z,83.14
2018-07-05T01:04:07.640Z,82.11
2018-07-05T01:06:54.048Z,81.94
2018-07-05T01:09:40.553Z,82.93
2018-07-05T01:12:27.094Z,82.78
2018-07-05T01:15:13.328Z,83.73
2018-07-05T01:17:59.842Z,84.43
2018-07-05T01:20:46.162Z,84.00
2018-07-05T01:23:32.647Z,84.67
2018-07-05T01:26:19.139Z,84.77
2018-07-05T01:29:05.424Z,84.77
2018-07-05T01:31:51.960Z,85.00
2018-07-05T01:34:38.446Z,85.12
2018-07-05T01:37:24.891Z,86.00
2018-07-05T01:40:11.341Z,86.26
2018-07-05T01:42:57.592Z,86.64
2018-07-05T01:45:44.034Z,86.24
2018-07-05T01:48:30.529Z,86.43
2018-07-05T01:51:10.815Z,87.05
2018-07-05T01:53:57.209Z,87.93
2018-07-05T01:56:43.762Z,87.23
2018-07-05T01:59:30.236Z,88.07
2018-07-05T02:02:16.747Z,87.42
2018-07-05T02:05:03.218Z,86.24
2018-07-05T02:07:49.659Z,87.40
2018-07-05T02:10:36.072Z,86.78
2018-07-05T02:13:22.460Z,86.16
2018-07-05T02:16:08.718Z,86.28
2018-07-05T02:18:55.133Z,87.22
2018-07-05T02:21:41.544Z,86.96
2018-07-05T02:24:28.135Z,86.82
2018-07-05T02:27:14.552Z,87.56
2018-07-05T02:30:01.105Z,87.46
2018-07-05T02:32:41.400Z,88.47
2018-07-05T02:35:27.820Z,88.06
2018-07-05T02:38:19.724Z,87.80
2018-07-05T02:41:06.213Z,88.13
2018-07-05T02:43:52.747Z,88.42
2018-07-05T02:46:39.145Z,88.38
2018-07-05T02:49:25.634Z,89.25
2018-07-05T02:52:11.967Z,89.47
2018-07-05T02:54:58.378Z,89.53
2018-07-05T02:57:44.945Z,89.20
2018-07-05T03:00:31.454Z,88.59
2018-07-05T03:03:17.844Z,90.55
2018-07-05T03:06:04.628Z,90.98
2018-07-05T03:08:50.993Z,91.33
2018-07-05T03:11:37.356Z,91.99
2018-07-05T03:14:23.578Z,90.70
2018-07-05T03:17:10.162Z,91.21
2018-07-05T03:19:56.443Z,89.49
2018-07-05T03:22:42.812Z,87.23
2018-07-05T03:25:29.246Z,86.93
2018-07-05T03:28:15.771Z,86.07
2018-07-05T03:31:02.233Z,85.12
2018-07-05T03:33:48.682Z,85.26
2018-07-05T03:36:35.208Z,84.71
2018-07-05T03:39:21.785Z,84.12
2018-07-05T03:42:08.399Z,82.70
2018-07-05T03:44:54.916Z,83.47
2018-07-05T03:47:41.288Z,84.27
2018-07-05T03:50:27.704Z,83.84
2018-07-05T03:53:14.129Z,85.06
2018-07-05T03:56:00.682Z,84.97
2018-07-05T03:58:47.140Z,85.32
2018-07-05T04:01:33.628Z,87.17
2018-07-05T04:04:20.170Z,86.50
2018-07-05T04:07:00.752Z,85.81
2018-07-05T04:09:47.150Z,86.66
2018-07-05T04:12:33.457Z,87.14
2018-07-05T04:15:19.880Z,86.60
2018-07-05T04:18:06.433Z,87.36
2018-07-05T04:20:52.776Z,87.33
2018-07-05T04:23:39.176Z,87.54
2018-07-05T04:26:25.745Z,87.74
2018-07-05T04:29:05.934Z,87.51
2018-07-05T04:31:52.226Z,86.88
2018-07-05T04:34:38.522Z,86.59
2018-07-05T04:37:24.922Z,86.17
2018-07-05T04:40:11.324Z,85.17
2018-07-05T04:42:57.748Z,84.77
2018-07-05T04:45:44.227Z,84.48
2018-07-05T04:48:30.768Z,84.86
2018-07-05T04:51:17.208Z,84.18
2018-07-05T04:54:03.597Z,84.11
2018-07-05T04:56:44.020Z,84.04
2018-07-05T04:59:30.310Z,83.62
2018-07-05T05:02:17.112Z,83.12
2018-07-05T05:05:03.383Z,83.10
2018-07-05T05:07:51.312Z,81.54
2018-07-05T05:10:31.539Z,82.03
2018-07-05T05:13:18.077Z,81.54
2018-07-05T05:16:04.610Z,81.41
2018-07-05T05:18:50.966Z,82.26
2018-07-05T05:21:37.540Z,82.05
2018-07-05T05:24:23.926Z,81.74
2018-07-05T05:27:10.333Z,81.81
2018-07-05T05:29:56.837Z,81.72
2018-07-05T05:32:43.143Z,81.49
2018-07-05T05:35:29.328Z,80.63
2018-07-05T05:38:15.797Z,80.25
2018-07-05T05:41:02.136Z,80.54
2018-07-05T05:43:48.681Z,80.03
2018-07-05T05:46:34.990Z,79.05
2018-07-05T05:49:21.247Z,78.41
2018-07-05T05:52:07.522Z,76.67
2018-07-05T05:54:53.929Z,75.29
2018-07-05T05:57:40.340Z,74.60
2018-07-05T06:00:26.979Z,73.69
2018-07-05T06:03:13.364Z,72.32
2018-07-05T06:05:59.727Z,71.86
2018-07-05T06:08:46.068Z,71.76
2018-07-05T06:11:32.575Z,70.46
2018-07-05T06:14:12.920Z,69.13
2018-07-05T06:16:59.321Z,68.24
2018-07-05T06:19:45.724Z,67.05
2018-07-05T06:22:32.016Z,66.08
2018-07-05T06:25:18.597Z,65.50
2018-07-05T06:28:04.916Z,64.84
2018-07-05T06:30:51.213Z,65.33
2018-07-05T06:33:37.760Z,66.63
2018-07-05T06:36:18.228Z,65.01
2018-07-05T06:39:05.854Z,66.00
2018-07-05T06:41:52.463Z,64.88
2018-07-05T06:44:38.891Z,66.19
2018-07-05T06:47:25.140Z,64.81
2018-07-05T06:50:11.406Z,62.62
2018-07-05T06:52:57.714Z,61.51
2018-07-05T06:55:44.089Z,63.61
2018-07-05T06:58:30.390Z,62.77
2018-07-05T07:01:16.929Z,62.06
2018-07-05T07:04:03.177Z,62.13
2018-07-05T07:06:49.505Z,60.71
2018-07-05T07:09:35.887Z,58.15
2018-07-05T07:12:22.276Z,59.04
2018-07-05T07:15:08.626Z,60.25
2018-07-05T07:17:54.841Z,59.56
2018-07-05T07:20:41.153Z,56.77
2018-07-05T07:23:27.447Z,55.35
2018-07-05T07:26:13.717Z,54.34
2018-07-05T07:28:59.979Z,52.46
2018-07-05T07:31:46.230Z,52.66
2018-07-05T07:34:32.499Z,51.96
2018-07-05T07:37:18.913Z,51.07
2018-07-05T07:40:05.285Z,53.19
2018-07-05T07:42:32.948Z,52.91
2018-07-05T07:45:00.624Z,53.25
2018-07-05T07:47:28.287Z,52.62
2018-07-05T07:49:55.959Z,52.18
2018-07-05T07:52:23.619Z,53.46
2018-07-05T07:54:51.297Z,55.63
2018-07-05T07:57:18.968Z,53.24
2018-07-05T07:59:46.951Z,51.08
2018-07-05T08:02:14.624Z,51.88
2018-07-05T08:04:42.275Z,52.75
2018-07-05T08:07:10.116Z,53.07
2018-07-05T08:09:37.857Z,52.06
2018-07-05T08:12:05.521Z,53.13
2018-07-05T08:14:33.189Z,51.66
2018-07-05T08:17:00.856Z,50.29
2018-07-05T08:19:28.519Z,50.45
2018-07-05T08:21:56.182Z,50.75
2018-07-05T08:24:23.839Z,50.01
2018-07-05T08:26:51.592Z,50.77
2018-07-05T08:29:19.249Z,51.23
2018-07-05T08:31:46.916Z,51.66
2018-07-05T08:34:14.583Z,51.33
2018-07-05T08:36:42.262Z,50.90
2018-07-05T08:39:09.916Z,51.90
2018-07-05T08:41:37.878Z,49.94
2018-07-05T08:44:05.517Z,49.53
2018-07-05T08:46:33.249Z,48.79
2018-07-05T08:49:00.917Z,47.21
2018-07-05T08:51:28.571Z,47.01
2018-07-05T08:53:56.252Z,47.54
2018-07-05T08:56:23.912Z,45.29
2018-07-05T08:58:51.584Z,46.36
2018-07-05T09:01:19.385Z,47.18
2018-07-05T09:03:47.365Z,45.29
2018-07-05T09:06:15.033Z,45.01
2018-07-05T09:08:42.724Z,43.83
2018-07-05T09:11:10.424Z,45.48
2018-07-05T09:13:38.209Z,47.04
2018-07-05T09:16:06.128Z,46.51
2018-07-05T09:18:33.873Z,47.45
2018-07-05T09:21:01.540Z,45.91
2018-07-05T09:23:29.354Z,46.60
2018-07-05T09:25:56.885Z,47.21
2018-07-05T09:28:24.561Z,46.59
2018-07-05T09:30:52.220Z,47.02
2018-07-05T09:33:19.884Z,46.27
2018-07-05T09:35:47.552Z,45.86
2018-07-05T09:38:15.225Z,45.51
2018-07-05T09:40:42.880Z,46.27
2018-07-05T09:43:10.556Z,44.86
2018-07-05T09:45:38.216Z,44.89
2018-07-05T09:48:05.889Z,46.22
2018-07-05T09:50:33.552Z,45.12
2018-07-05T09:53:01.211Z,45.81
2018-07-05T09:55:28.911Z,46.00
2018-07-05T09:57:56.610Z,44.50
2018-07-05T10:00:29.600Z,43.52
2018-07-05T10:02:57.264Z,45.34
2018-07-05T10:05:24.959Z,44.73
2018-07-05T10:07:52.628Z,43.59
2018-07-05T10:10:20.288Z,44.07
2018-07-05T10:12:47.959Z,43.04
2018-07-05T10:15:15.621Z,42.61
2018-07-05T10:17:43.275Z,42.91
2018-07-05T10:20:11.026Z,42.87
2018-07-05T10:22:38.727Z,42.27
2018-07-05T10:25:06.389Z,42.39
2018-07-05T10:27:34.044Z,41.23
2018-07-05T10:30:20.369Z,42.59
2018-07-05T10:33:06.850Z,43.17
2018-07-05T10:35:34.511Z,41.73
2018-07-05T10:38:03.232Z,40.89
2018-07-05T10:40:49.559Z,40.07
2018-07-05T10:43:35.754Z,40.68
2018-07-05T10:46:22.074Z,39.53
2018-07-05T10:49:08.295Z,39.14
2018-07-05T10:51:54.777Z,38.63
2018-07-05T10:54:41.047Z,39.78
2018-07-05T10:57:27.372Z,39.20
2018-07-05T11:00:13.851Z,39.19
2018-07-05T11:03:00.163Z,39.61
2018-07-05T11:05:46.744Z,38.44
2018-07-05T11:08:27.019Z,40.05
2018-07-05T11:11:13.165Z,38.94
2018-07-05T11:13:59.419Z,40.64
2018-07-05T11:16:45.716Z,41.57
2018-07-05T11:19:31.803Z,42.62
2018-07-05T11:22:18.073Z,41.95
2018-07-05T11:25:04.333Z,39.96
2018-07-05T11:27:50.974Z,41.44
2018-07-05T11:30:38.236Z,40.81
2018-07-05T11:33:24.608Z,39.22
2018-07-05T11:36:10.936Z,38.64
2018-07-05T11:38:57.329Z,39.27
2018-07-05T11:41:43.577Z,38.53
2018-07-05T11:44:29.991Z,39.55
2018-07-05T11:47:16.345Z,40.41
2018-07-05T11:50:02.606Z,39.52
2018-07-05T11:52:49.016Z,39.09
2018-07-05T11:55:35.412Z,38.24
2018-07-05T11:58:21.615Z,37.46
2018-07-05T12:01:07.832Z,37.41
2018-07-05T12:03:54.230Z,37.81
2018-07-05T12:06:40.733Z,37.90
2018-07-05T12:09:27.015Z,38.57
2018-07-05T12:12:13.459Z,39.52
2018-07-05T12:14:59.667Z,41.63
2018-07-05T12:17:46.048Z,42.99
2018-07-05T12:20:32.531Z,42.46
2018-07-05T12:23:19.409Z,41.31
2018-07-05T12:26:05.894Z,40.49
2018-07-05T12:28:52.271Z,40.99
2018-07-05T12:31:38.777Z,40.96
2018-07-05T12:34:25.172Z,41.73
2018-07-05T12:37:11.601Z,40.77
2018-07-05T12:39:57.824Z,40.63
2018-07-05T12:42:44.204Z,41.38
2018-07-05T12:45:30.455Z,41.65
2018-07-05T12:48:16.757Z,42.61
2018-07-05T12:51:03.063Z,41.42
2018-07-05T12:53:49.439Z,42.08
2018-07-05T12:56:35.857Z,42.88
2018-07-05T12:59:22.171Z,43.31
2018-07-05T13:02:08.660Z,44.59
2018-07-05T13:04:55.070Z,47.13
2018-07-05T13:07:41.468Z,49.23
2018-07-05T13:10:27.773Z,48.18
2018-07-05T13:13:14.196Z,47.02
2018-07-05T13:16:00.513Z,48.49
2018-07-05T13:18:40.979Z,50.11
2018-07-05T13:21:27.395Z,49.50
2018-07-05T13:24:13.712Z,50.63
2018-07-05T13:27:00.078Z,52.81
2018-07-05T13:29:46.411Z,55.47
2018-07-05T13:32:32.806Z,56.51
2018-07-05T13:35:19.208Z,56.07
2018-07-05T13:38:05.472Z,57.27
2018-07-05T13:40:51.776Z,59.95
2018-07-05T13:43:38.207Z,62.50
2018-07-05T13:46:24.611Z,64.49
2018-07-05T13:49:10.895Z,65.06
2018-07-05T13:51:57.215Z,64.00
2018-07-05T13:54:43.550Z,63.40
2018-07-05T13:57:29.849Z,64.31
2018-07-05T14:00:16.145Z,64.98
2018-07-05T14:03:02.413Z,66.76
2018-07-05T14:05:48.826Z,66.70
2018-07-05T14:08:35.263Z,66.99
2018-07-05T14:11:21.658Z,67.55
2018-07-05T14:14:01.956Z,67.72
2018-07-05T14:16:48.218Z,67.47
2018-07-05T14:19:34.523Z,67.56
2018-07-05T14:22:20.981Z,67.59
2018-07-05T14:25:07.590Z,70.46
2018-07-05T14:27:53.993Z,70.79
2018-07-05T14:30:40.360Z,73.70
2018-07-05T14:33:26.692Z,75.42
2018-07-05T14:36:13.071Z,75.76
2018-07-05T14:38:59.581Z,77.90
2018-07-05T14:41:46.029Z,79.09
2018-07-05T14:44:32.331Z,79.20
2018-07-05T14:47:18.535Z,80.40
2018-07-05T14:50:04.920Z,82.26
2018-07-05T14:52:51.168Z,83.58
2018-07-05T14:55:37.667Z,84.47
2018-07-05T14:58:23.997Z,85.62
2018-07-05T15:01:10.362Z,86.32
2018-07-05T15:03:56.970Z,88.75
2018-07-05T15:06:43.222Z,88.96
2018-07-05T15:09:29.530Z,89.08
2018-07-05T15:12:10.002Z,90.44
2018-07-05T15:14:56.379Z,90.51
2018-07-05T15:17:42.896Z,90.62
2018-07-05T15:20:29.302Z,91.21
2018-07-05T15:23:15.633Z,90.87
2018-07-05T15:26:01.984Z,90.42
2018-07-05T15:28:48.480Z,90.80
2018-07-05T15:31:34.841Z,91.10
2018-07-05T15:34:21.166Z,90.54
2018-07-05T15:37:07.616Z,91.06
2018-07-05T15:39:53.971Z,91.77
2018-07-05T15:42:40.325Z,91.38
2018-07-05T15:45:26.829Z,91.80
2018-07-05T15:48:13.260Z,91.97
2018-07-05T15:50:59.355Z,93.42
2018-07-05T15:53:45.844Z,92.89
2018-07-05T15:56:32.072Z,100.00
2018-07-05T23:09:22.819Z,94.92
2018-07-05T23:12:09.272Z,95.23
2018-07-05T23:14:55.647Z,95.71
2018-07-05T23:17:42.168Z,94.67
2018-07-05T23:20:28.917Z,94.97
2018-07-05T23:23:15.228Z,94.92
2018-07-05T23:25:55.680Z,95.18
2018-07-05T23:28:42.082Z,95.22
2018-07-05T23:31:28.635Z,95.19
2018-07-05T23:34:15.014Z,96.32
2018-07-05T23:37:01.435Z,94.95
2018-07-05T23:39:47.996Z,95.26
2018-07-05T23:42:28.355Z,94.92
2018-07-05T23:45:14.710Z,95.38
2018-07-05T23:48:01.241Z,95.43
2018-07-05T23:50:47.679Z,95.04
2018-07-05T23:53:34.010Z,95.72
2018-07-05T23:56:20.396Z,95.33
2018-07-05T23:59:06.816Z,95.94
